Time;durP1;ratioP1;P1;durP2;ratioP2;P2;SDS_P1;SDS_P2;PMS_P1;PMS_P2;Temp;Humidity;BMP_temperature;BMP_pressure;BME280_temperature;BME280_humidity;BME280_pressure;Samples;Min_cycle;Max_cycle;Signal;HPM_P1;HPM_P2
2021/04/19 00:01:28;;;;;;;;;;;;;;;-142.75;64.45;78645.59;5051726;28;19920;-72
2021/04/19 00:03:54;;;;;;;;;;;;;;;-142.75;64.29;78645.59;5050667;28;19924;-72
2021/04/19 00:06:19;;;;;;;;;;;;;;;-142.75;64.54;78637.72;5050807;28;19912;-72
2021/04/19 00:08:44;;;;;;;;;;;;;;;-142.75;64.46;78641.66;5051200;28;19936;-72
2021/04/19 00:11:09;;;;;;;;;;;;;;;-142.75;64.36;78641.66;5050311;28;19912;-71
2021/04/19 00:13:35;;;;;;;;;;;;;;;-142.75;64.44;78641.66;5050683;28;20278;-73
2021/04/19 00:16:00;;;;;;;;;;;;;;;-142.75;64.65;78641.66;5050583;28;20330;-71
2021/04/19 00:18:25;;;;;;;;;;;;;;;-142.75;64.81;78643.63;5050152;28;19939;-71
2021/04/19 00:20:50;;;;;;;;;;;;;;;-142.75;64.78;78631.81;5050368;28;19978;-71
2021/04/19 00:23:16;;;;;;;;;;;;;;;-142.75;64.81;78637.72;5032861;28;19913;-72
2021/04/19 00:25:42;;;;;;;;;;;;;;;-142.75;64.88;78639.69;5049652;28;19920;-71
2021/04/19 00:28:07;;;;;;;;;;;;;;;-142.75;64.84;78633.78;5050558;28;19923;-72
2021/04/19 00:30:32;;;;;;;;;;;;;;;-142.75;64.96;78637.72;5050198;28;20287;-72
2021/04/19 00:32:57;;;;;;;;;;;;;;;-142.75;64.95;78639.69;5050190;28;19913;-71
2021/04/19 00:35:22;;;;;;;;;;;;;;;-142.75;65.14;78641.66;5050021;28;20370;-71
2021/04/19 00:37:48;;;;;;;;;;;;;;;-142.75;65.18;78639.69;5050038;28;19924;-71
2021/04/19 00:40:14;;;;;;;;;;;;;;;-142.75;65.17;78631.81;5050180;28;19966;-72
2021/04/19 00:42:41;;;;;;;;;;;;;;;-142.75;65.15;78635.75;5049974;28;20389;-72
2021/04/19 00:45:06;;;;;;;;;;;;;;;-142.75;65.31;78633.78;5032193;28;19919;-71
2021/04/19 00:47:32;;;;;;;;;;;;;;;-142.75;65.41;78621.97;5032130;28;19916;-71
2021/04/19 00:49:58;;;;;;;;;;;;;;;-142.75;65.03;78618.03;5050319;28;19912;-73
2021/04/19 00:52:23;;;;;;;;;;;;;;;-142.75;64.87;78627.88;5049773;28;19919;-73
2021/04/19 00:54:48;;;;;;;;;;;;;;;-142.75;65.20;78629.84;5050201;28;19999;-71
2021/04/19 00:57:14;;;;;;;;;;;;;;;-142.75;65.28;78629.84;5049953;28;19974;-74
2021/04/19 00:59:39;;;;;;;;;;;;;;;-142.75;65.46;78629.84;5032036;28;19917;-71
2021/04/19 01:02:05;;;;;;;;;;;;;;;-142.75;65.27;78633.78;5049944;28;20374;-72
2021/04/19 01:04:30;;;;;;;;;;;;;;;-142.75;65.49;78633.78;5031748;28;19920;-71
2021/04/19 01:06:58;;;;;;;;;;;;;;;-142.75;65.13;78625.91;5063267;28;19920;-72
2021/04/19 01:09:24;;;;;;;;;;;;;;;-142.75;65.34;78629.84;5070154;28;19912;-71
2021/04/19 01:11:49;;;;;;;;;;;;;;;-142.75;65.37;78633.78;5069067;28;19923;-71
2021/04/19 01:14:14;;;;;;;;;;;;;;;-142.75;65.40;78637.72;5050128;28;19924;-72
2021/04/19 01:16:39;;;;;;;;;;;;;;;-142.75;65.71;78639.69;5049898;28;19920;-71
2021/04/19 01:19:04;;;;;;;;;;;;;;;-142.75;65.48;78637.72;5049878;28;19913;-71
2021/04/19 01:21:30;;;;;;;;;;;;;;;-142.75;65.49;78641.66;5049687;28;19912;-73
2021/04/19 01:23:55;;;;;;;;;;;;;;;-142.75;65.36;78649.53;5049376;28;19966;-71
2021/04/19 01:26:20;;;;;;;;;;;;;;;-142.75;65.49;78651.50;5049731;28;20003;-71
2021/04/19 01:28:45;;;;;;;;;;;;;;;-142.75;65.57;78651.50;5049899;28;20401;-71
2021/04/19 01:31:10;;;;;;;;;;;;;;;-142.75;65.74;78651.50;5049352;28;20370;-72
2021/04/19 01:33:36;;;;;;;;;;;;;;;-142.75;65.72;78655.44;5032053;28;19913;-71
2021/04/19 01:36:01;;;;;;;;;;;;;;;-142.75;65.78;78649.53;5049611;28;19966;-71
2021/04/19 01:38:26;;;;;;;;;;;;;;;-142.75;65.78;78655.44;5032389;28;19950;-71
2021/04/19 01:40:54;;;;;;;;;;;;;;;-142.75;65.62;78655.44;5049556;28;20062;-72
2021/04/19 01:43:20;;;;;;;;;;;;;;;-142.75;65.65;78651.50;5049832;28;19995;-72
2021/04/19 01:45:45;;;;;;;;;;;;;;;-142.75;66.08;78657.41;5049671;28;20002;-72
2021/04/19 01:48:11;;;;;;;;;;;;;;;-142.75;66.00;78665.28;5050683;28;19931;-71
2021/04/19 01:50:37;;;;;;;;;;;;;;;-142.75;66.08;78669.25;5053165;28;19912;-71
2021/04/19 01:53:02;;;;;;;;;;;;;;;-142.75;66.22;78657.41;5052158;28;20003;-72
2021/04/19 01:55:29;;;;;;;;;;;;;;;-142.75;66.08;78663.31;5052969;28;20301;-72
2021/04/19 01:57:58;;;;;;;;;;;;;;;-142.75;66.27;78673.19;5062393;28;19973;-73
2021/04/19 02:00:25;;;;;;;;;;;;;;;-142.75;66.33;78661.34;5072929;28;19982;-71
2021/04/19 02:02:53;;;;;;;;;;;;;;;-142.75;66.72;78669.25;5072861;28;19912;-71
2021/04/19 02:05:27;;;;;;;;;;;;;;;-142.75;66.56;78667.25;5054943;28;19919;-71
2021/04/19 02:07:57;;;;;;;;;;;;;;;-142.75;66.61;78671.22;5073354;28;19939;-73
2021/04/19 02:10:22;;;;;;;;;;;;;;;-142.75;66.72;78667.25;5072911;28;19966;-72
2021/04/19 02:12:48;;;;;;;;;;;;;;;-142.75;66.86;78677.13;5072480;28;19944;-71
2021/04/19 02:15:20;;;;;;;;;;;;;;;-142.75;66.81;78681.06;5072888;28;20404;-71
2021/04/19 02:17:48;;;;;;;;;;;;;;;-142.75;66.83;78681.06;5072659;28;19916;-72
2021/04/19 02:20:29;;;;;;;;;;;;;;;-142.75;67.26;78677.13;5072670;28;19912;-73
2021/04/19 02:22:59;;;;;;;;;;;;;;;-142.75;67.04;78675.16;5072600;28;19931;-72
2021/04/19 02:25:35;;;;;;;;;;;;;;;-142.75;67.16;78686.97;5072382;28;19917;-75
2021/04/19 02:28:03;;;;;;;;;;;;;;;-142.75;67.16;78683.03;5057543;28;20007;-72
2021/04/19 02:30:33;;;;;;;;;;;;;;;-142.75;67.31;78683.03;5072128;28;20090;-72
2021/04/19 02:32:59;;;;;;;;;;;;;;;-142.75;67.55;78688.94;5072520;28;19912;-73
2021/04/19 02:35:25;;;;;;;;;;;;;;;-142.75;67.69;78688.94;5072013;28;19927;-71
2021/04/19 02:37:50;;;;;;;;;;;;;;;-142.75;67.41;78708.63;5033954;28;19936;-71
2021/04/19 02:40:17;;;;;;;;;;;;;;;-142.75;67.56;78710.59;5060376;28;19982;-72
2021/04/19 02:42:43;;;;;;;;;;;;;;;-142.75;67.54;78720.44;5071624;28;19999;-71
2021/04/19 02:45:10;;;;;;;;;;;;;;;-142.75;67.29;78740.13;5072362;28;19913;-72
2021/04/19 02:47:36;;;;;;;;;;;;;;;-142.75;67.59;78742.09;5071916;28;20365;-71
2021/04/19 02:50:04;;;;;;;;;;;;;;;-142.75;67.90;78730.28;5072317;28;20026;-71
2021/04/19 02:52:29;;;;;;;;;;;;;;;-142.75;68.13;78732.25;5071520;28;19912;-72
2021/04/19 02:54:55;;;;;;;;;;;;;;;-142.75;68.06;78734.22;5071914;28;19934;-71
2021/04/19 02:57:24;;;;;;;;;;;;;;;-142.75;68.01;78728.31;5071838;28;19912;-71
2021/04/19 02:59:50;;;;;;;;;;;;;;;-142.75;68.31;78708.63;5049740;28;19913;-72
2021/04/19 03:02:16;;;;;;;;;;;;;;;-142.75;68.14;78716.50;5033857;28;19913;-71
2021/04/19 03:04:41;;;;;;;;;;;;;;;-142.75;68.45;78720.44;5051928;28;20393;-70
2021/04/19 03:07:08;;;;;;;;;;;;;;;-142.75;68.46;78720.44;5052253;28;20298;-72
2021/04/19 03:09:34;;;;;;;;;;;;;;;-142.75;68.30;78712.56;5051961;28;19920;-71
2021/04/19 03:12:03;;;;;;;;;;;;;;;-142.75;68.73;78716.50;5051464;28;19991;-71
2021/04/19 03:14:36;;;;;;;;;;;;;;;-142.75;68.64;78718.47;5065854;28;19912;-71
2021/04/19 03:17:03;;;;;;;;;;;;;;;-142.75;68.76;78718.47;5071515;28;19914;-71
2021/04/19 03:19:31;;;;;;;;;;;;;;;-142.75;69.26;78714.53;5071539;28;19912;-73
2021/04/19 03:21:58;;;;;;;;;;;;;;;-142.75;69.35;78712.56;5071273;28;19958;-71
2021/04/19 03:24:23;;;;;;;;;;;;;;;-142.75;69.43;78714.53;5070249;28;20290;-71
2021/04/19 03:26:49;;;;;;;;;;;;;;;-142.75;69.61;78712.56;5033485;28;19912;-71
2021/04/19 03:29:16;;;;;;;;;;;;;;;-142.75;69.81;78710.59;5051460;28;19920;-72
2021/04/19 03:31:46;;;;;;;;;;;;;;;-142.75;70.19;78712.56;5037420;28;19932;-71
2021/04/19 03:34:13;;;;;;;;;;;;;;;-142.75;70.12;78712.56;5053185;28;20051;-71
2021/04/19 03:36:39;;;;;;;;;;;;;;;-142.75;70.05;78708.63;5065443;28;19913;-72
2021/04/19 03:39:05;;;;;;;;;;;;;;;-142.75;70.12;78708.63;5051758;28;19966;-73
2021/04/19 03:41:31;;;;;;;;;;;;;;;-142.75;69.99;78714.53;5032887;28;19992;-71
2021/04/19 03:43:59;;;;;;;;;;;;;;;-142.75;70.07;78722.41;5051247;28;19912;-72
2021/04/19 03:46:26;;;;;;;;;;;;;;;-142.75;70.28;78710.59;5050810;28;20362;-71
2021/04/19 03:48:54;;;;;;;;;;;;;;;-142.75;70.18;78706.66;5051182;28;19917;-71
2021/04/19 03:51:21;;;;;;;;;;;;;;;-142.75;70.54;78702.72;5060858;28;19974;-71
2021/04/19 03:53:49;;;;;;;;;;;;;;;-142.75;70.37;78706.66;5053343;28;20301;-72
2021/04/19 03:56:14;;;;;;;;;;;;;;;-142.75;70.50;78702.72;5070509;28;19928;-72
2021/04/19 03:58:42;;;;;;;;;;;;;;;-142.75;70.65;78702.72;5071054;28;19912;-73
2021/04/19 04:01:09;;;;;;;;;;;;;;;-142.75;70.51;78706.66;5070063;28;20002;-72
2021/04/19 04:03:36;;;;;;;;;;;;;;;-142.75;70.58;78708.63;5070880;28;19916;-71
2021/04/19 04:06:01;;;;;;;;;;;;;;;-142.75;70.55;78708.63;5064108;28;19920;-72
2021/04/19 04:08:27;;;;;;;;;;;;;;;-142.75;70.37;78722.41;5051367;28;19917;-72
2021/04/19 04:10:53;;;;;;;;;;;;;;;-142.75;70.21;78738.16;5050216;28;19952;-71
2021/04/19 04:13:18;;;;;;;;;;;;;;;-142.75;70.43;78728.31;5062699;28;20007;-71
2021/04/19 04:15:56;;;;;;;;;;;;;;;-142.75;70.48;78742.09;5070305;28;19912;-72
2021/04/19 04:18:21;;;;;;;;;;;;;;;-142.75;70.25;78748.03;5070593;28;20305;-71
2021/04/19 04:20:47;;;;;;;;;;;;;;;-142.75;70.27;78740.13;5070477;28;19919;-72
2021/04/19 04:23:12;;;;;;;;;;;;;;;-142.75;70.30;78736.19;5070518;28;19913;-72
2021/04/19 04:25:38;;;;;;;;;;;;;;;-142.75;70.09;78718.47;5070178;28;19916;-73
2021/04/19 04:28:04;;;;;;;;;;;;;;;-142.75;70.39;78708.63;5070457;28;20004;-72
2021/04/19 04:30:31;;;;;;;;;;;;;;;-142.75;70.42;78704.69;5070060;28;19974;-73
2021/04/19 04:32:56;;;;;;;;;;;;;;;-142.75;70.74;78708.63;5062870;28;19913;-71
2021/04/19 04:35:21;;;;;;;;;;;;;;;-142.75;70.71;78698.78;5050222;28;19935;-73
2021/04/19 04:37:46;;;;;;;;;;;;;;;-142.75;70.75;78685.00;5049205;28;19974;-72
2021/04/19 04:40:12;;;;;;;;;;;;;;;-142.75;71.08;78677.13;5062343;28;20381;-71
2021/04/19 04:42:38;;;;;;;;;;;;;;;-142.75;71.42;78659.38;5069940;28;19912;-72
2021/04/19 04:45:04;;;;;;;;;;;;;;;-142.75;71.21;78647.56;5070269;28;20418;-72
2021/04/19 04:47:31;;;;;;;;;;;;;;;-142.75;71.25;78645.59;5070072;28;20062;-72
2021/04/19 04:50:03;;;;;;;;;;;;;;;-142.75;71.50;78633.78;5069993;28;19916;-72
2021/04/19 04:52:35;;;;;;;;;;;;;;;-142.75;71.33;78637.72;5052178;28;20298;-71
2021/04/19 04:55:01;;;;;;;;;;;;;;;-142.75;71.40;78633.78;5070090;28;20289;-71
2021/04/19 04:57:27;;;;;;;;;;;;;;;-142.75;71.35;78623.94;5070060;28;19912;-72
2021/04/19 04:59:53;;;;;;;;;;;;;;;-142.75;71.38;78606.22;5070026;28;19920;-72
2021/04/19 05:02:23;;;;;;;;;;;;;;;-142.75;71.41;78616.06;5069870;28;19912;-71
2021/04/19 05:04:50;;;;;;;;;;;;;;;-142.75;71.33;78610.16;5069468;28;19927;-72
2021/04/19 05:07:15;;;;;;;;;;;;;;;-142.75;71.35;78606.22;5069972;28;19920;-72
2021/04/19 05:09:43;;;;;;;;;;;;;;;-142.75;71.39;78602.28;5069618;28;19912;-72
2021/04/19 05:12:09;;;;;;;;;;;;;;;-142.75;71.49;78604.25;5069535;28;19957;-73
2021/04/19 05:14:37;;;;;;;;;;;;;;;-142.75;71.21;78594.41;5051363;28;19916;-72
2021/04/19 05:17:02;;;;;;;;;;;;;;;-142.75;71.04;78592.44;5069536;28;19912;-71
2021/04/19 05:19:27;;;;;;;;;;;;;;;-142.75;70.92;78590.47;5069376;28;19935;-72
2021/04/19 05:21:53;;;;;;;;;;;;;;;-142.75;70.86;78594.41;5065312;28;19913;-72
2021/04/19 05:24:18;;;;;;;;;;;;;;;-142.75;70.86;78596.38;5067674;28;19938;-72
2021/04/19 05:26:43;;;;;;;;;;;;;;;-142.75;70.72;78588.50;5063399;28;20286;-71
2021/04/19 05:29:09;;;;;;;;;;;;;;;-142.75;70.84;78574.69;5067768;28;19916;-71
2021/04/19 05:31:35;;;;;;;;;;;;;;;-142.75;70.61;78566.81;5057757;28;19920;-72
2021/04/19 05:34:00;;;;;;;;;;;;;;;-142.75;70.33;78560.91;5060646;28;19913;-74
2021/04/19 05:36:26;;;;;;;;;;;;;;;-142.75;69.94;78547.13;5043843;28;19912;-72
2021/04/19 05:38:52;;;;;;;;;;;;;;;-142.75;69.84;78549.09;5053457;28;19912;-72
2021/04/19 05:41:17;;;;;;;;;;;;;;;-142.75;69.51;78555.00;5052458;28;20385;-71
2021/04/19 05:43:43;;;;;;;;;;;;;;;-142.75;69.52;78551.06;5034822;28;19919;-72
2021/04/19 05:46:09;;;;;;;;;;;;;;;-142.75;69.51;78531.38;5052639;28;19923;-72
2021/04/19 05:48:34;;;;;;;;;;;;;;;-142.75;69.48;78509.72;5052715;28;19971;-72
2021/04/19 05:51:02;;;;;;;;;;;;;;;-142.75;69.16;78488.03;5052273;28;20400;-72
2021/04/19 05:53:28;;;;;;;;;;;;;;;-142.75;68.83;78484.09;5048223;28;19919;-72
2021/04/19 05:55:53;;;;;;;;;;;;;;;-142.75;68.53;78438.81;5072250;28;19912;-72
2021/04/19 05:58:37;;;;;;;;;;;;;;;-142.75;67.31;78397.44;5054359;28;19913;-71
2021/04/19 06:01:07;;;;;;;;;;;;;;;-142.75;66.70;78397.44;5053603;28;19912;-72
2021/04/19 06:03:39;;;;;;;;;;;;;;;-142.75;66.33;78363.97;5072971;28;19913;-71
2021/04/19 06:06:21;;;;;;;;;;;;;;;-142.75;66.05;78330.50;5055083;28;19916;-72
2021/04/19 06:09:01;;;;;;;;;;;;;;;-142.75;64.63;78237.94;5054804;28;20386;-75
2021/04/19 06:11:29;;;;;;;;;;;;;;;-142.75;62.77;78194.63;5072751;28;19912;-73
2021/04/19 06:13:55;;;;;;;;;;;;;;;-142.75;61.69;78147.34;5049001;28;19923;-72
2021/04/19 06:16:21;;;;;;;;;;;;;;;-142.75;60.77;78115.84;5041544;28;20003;-72
2021/04/19 06:18:47;;;;;;;;;;;;;;;-142.75;60.18;78070.56;5054698;28;19913;-72
2021/04/19 06:21:13;;;;;;;;;;;;;;;-142.75;59.50;78041.00;5073106;28;20388;-72
2021/04/19 06:23:39;;;;;;;;;;;;;;;-142.75;58.75;78011.47;5073170;28;20060;-72
2021/04/19 06:26:06;;;;;;;;;;;;;;;-142.75;57.93;78009.50;5073208;28;20019;-72
2021/04/19 06:28:31;;;;;;;;;;;;;;;-142.75;58.42;78058.72;5073123;28;19978;-72
2021/04/19 06:30:57;;;;;;;;;;;;;;;-142.75;58.73;78107.97;5065079;28;19912;-72
2021/04/19 06:33:23;;;;;;;;;;;;;;;-142.75;60.03;78167.03;5052838;28;19913;-71
2021/04/19 06:35:48;;;;;;;;;;;;;;;-142.75;61.08;78220.22;5052645;28;19920;-74
2021/04/19 06:38:14;;;;;;;;;;;;;;;-142.75;62.04;78247.78;5052557;28;19927;-72
2021/04/19 06:40:40;;;;;;;;;;;;;;;-142.75;62.29;78247.78;5052277;28;19935;-71
2021/04/19 06:43:06;;;;;;;;;;;;;;;-142.75;62.18;78216.28;5052289;28;19999;-71
2021/04/19 06:45:32;;;;;;;;;;;;;;;-142.75;61.17;78123.72;5052242;28;19996;-70
2021/04/19 06:47:58;;;;;;;;;;;;;;;-142.75;59.66;78119.78;5051819;28;19917;-71
2021/04/19 06:50:24;;;;;;;;;;;;;;;-142.75;60.16;78165.06;5052565;28;19917;-72
2021/04/19 06:52:49;;;;;;;;;;;;;;;-142.75;60.91;78208.41;5051845;28;19919;-71
2021/04/19 06:55:19;;;;;;;;;;;;;;;-142.75;61.15;78208.41;5050542;28;19960;-70
2021/04/19 06:57:46;;;;;;;;;;;;;;;-142.75;61.81;78239.91;5051868;28;19912;-71
2021/04/19 07:00:12;;;;;;;;;;;;;;;-142.75;62.12;78245.81;5051781;28;20369;-72
2021/04/19 07:02:49;;;;;;;;;;;;;;;-142.75;62.05;78253.69;5033547;28;19939;-70
2021/04/19 07:05:34;;;;;;;;;;;;;;;-142.75;62.69;78232.03;5051531;28;20382;-71
2021/04/19 07:08:11;;;;;;;;;;;;;;;-142.75;62.31;78212.34;5033107;28;19920;-71
2021/04/19 07:10:37;;;;;;;;;;;;;;;-142.75;61.96;78169.00;5057385;28;19912;-72
2021/04/19 07:13:07;;;;;;;;;;;;;;;-142.75;61.61;78143.41;5071300;28;19927;-70
2021/04/19 07:15:34;;;;;;;;;;;;;;;-142.75;60.32;78109.94;5053299;28;19916;-71
2021/04/19 07:17:59;;;;;;;;;;;;;;;-142.75;60.19;78106.00;5055471;28;19966;-71
2021/04/19 07:20:24;;;;;;;;;;;;;;;-142.75;60.74;78145.38;5051333;28;19920;-71
2021/04/19 07:22:49;;;;;;;;;;;;;;;-142.75;61.06;78147.34;5051062;28;19913;-71
2021/04/19 07:25:14;;;;;;;;;;;;;;;-142.75;61.66;78139.47;5033456;28;20015;-70
2021/04/19 07:27:40;;;;;;;;;;;;;;;-142.75;60.94;78151.28;5069341;28;19963;-71
2021/04/19 07:30:06;;;;;;;;;;;;;;;-142.75;61.54;78170.97;5071072;28;19916;-71
2021/04/19 07:32:33;;;;;;;;;;;;;;;-142.75;61.85;78188.72;5070672;28;19967;-73
2021/04/19 07:34:58;;;;;;;;;;;;;;;-142.75;62.40;78198.56;5071068;28;19923;-71
2021/04/19 07:37:23;;;;;;;;;;;;;;;-142.75;62.21;78202.50;5071231;28;19912;-71
2021/04/19 07:39:48;;;;;;;;;;;;;;;-142.75;62.20;78198.56;5070805;28;19919;-71
2021/04/19 07:42:17;;;;;;;;;;;;;;;-142.75;62.07;78198.56;5059176;28;19916;-71
2021/04/19 07:44:42;;;;;;;;;;;;;;;-142.75;62.12;78170.97;5052845;28;19912;-70
2021/04/19 07:47:25;;;;;;;;;;;;;;;-142.75;61.67;78163.09;5070191;28;19916;-71
2021/04/19 07:50:10;;;;;;;;;;;;;;;-142.75;61.50;78155.22;5070645;28;19919;-70
2021/04/19 07:52:56;;;;;;;;;;;;;;;-142.75;61.64;78137.50;5070155;28;19919;-71
2021/04/19 07:55:23;;;;;;;;;;;;;;;-142.75;61.37;78178.84;5041124;28;19920;-70
2021/04/19 07:57:50;;;;;;;;;;;;;;;-142.75;61.56;78184.78;5070850;28;19981;-72
2021/04/19 08:00:22;;;;;;;;;;;;;;;-142.75;61.83;78204.47;5070735;28;19943;-70
2021/04/19 08:02:55;;;;;;;;;;;;;;;-142.75;63.02;78200.53;5070225;28;20266;-73
2021/04/19 08:05:31;;;;;;;;;;;;;;;-142.75;63.20;78188.72;5051631;28;19919;-73
2021/04/19 08:07:56;;;;;;;;;;;;;;;-142.75;63.42;78167.03;5060246;28;20409;-79
2021/04/19 08:10:21;;;;;;;;;;;;;;;-142.75;63.33;78151.28;5057414;28;19919;-77
2021/04/19 08:12:48;;;;;;;;;;;;;;;-142.75;62.91;78084.34;5060988;28;20046;-77
2021/04/19 08:15:16;;;;;;;;;;;;;;;-142.75;61.68;78027.22;5041266;28;19916;-77
2021/04/19 08:17:42;;;;;;;;;;;;;;;-142.75;60.94;78027.22;5050135;28;19916;-78
2021/04/19 08:20:09;;;;;;;;;;;;;;;-142.75;60.19;78046.91;5043445;28;19912;-79
2021/04/19 08:22:35;;;;;;;;;;;;;;;-142.75;61.05;78072.53;5060597;28;20492;-75
2021/04/19 08:25:09;;;;;;;;;;;;;;;-142.75;61.18;78090.25;5057198;28;19913;-77
2021/04/19 08:27:34;;;;;;;;;;;;;;;-142.75;61.62;78084.34;5040405;28;19966;-77
2021/04/19 08:29:59;;;;;;;;;;;;;;;-142.75;61.48;78056.78;5060956;28;20348;-76
2021/04/19 08:32:26;;;;;;;;;;;;;;;-142.75;61.52;78042.97;5062142;28;19923;-75
2021/04/19 08:34:51;;;;;;;;;;;;;;;-142.75;60.56;78021.31;5058364;28;19935;-75
2021/04/19 08:37:17;;;;;;;;;;;;;;;-142.75;60.59;77987.84;5041527;28;19916;-77
2021/04/19 08:39:43;;;;;;;;;;;;;;;-142.75;59.54;77922.88;5059440;28;19912;-80
2021/04/19 08:42:09;;;;;;;;;;;;;;;-142.75;58.73;77915.00;5049669;28;20398;-77
2021/04/19 08:44:35;;;;;;;;;;;;;;;-142.75;58.37;77889.38;5064280;28;20007;-76
2021/04/19 08:47:01;;;;;;;;;;;;;;;-142.75;57.57;77857.88;5049686;28;20360;-75
2021/04/19 08:49:27;;;;;;;;;;;;;;;-142.75;57.07;77794.88;5049708;28;20374;-72
2021/04/19 08:51:53;;;;;;;;;;;;;;;-142.75;55.31;77751.56;5049500;28;19923;-75
2021/04/19 08:54:18;;;;;;;;;;;;;;;-142.75;55.37;77729.88;5049681;28;19916;-75
2021/04/19 08:56:43;;;;;;;;;;;;;;;-142.75;53.11;77710.19;5057358;28;19923;-75
2021/04/19 08:59:09;;;;;;;;;;;;;;;-142.75;54.03;77609.78;5054478;28;20014;-74
2021/04/19 09:01:35;;;;;;;;;;;;;;;-142.75;53.15;77546.78;5072234;28;19923;-78
2021/04/19 09:04:04;;;;;;;;;;;;;;;-142.75;52.17;77546.78;5074061;28;20003;-77
2021/04/19 09:06:43;;;;;;;;;;;;;;;-142.75;51.46;77531.03;5055867;28;19912;-74
2021/04/19 09:09:11;;;;;;;;;;;;;;;-142.75;52.29;77534.97;5073525;28;20053;-74
2021/04/19 09:11:36;;;;;;;;;;;;;;;-142.75;52.91;77564.50;5073557;28;19935;-74
2021/04/19 09:14:06;;;;;;;;;;;;;;;-142.75;51.82;77542.84;5056432;28;19987;-75
2021/04/19 09:16:36;;;;;;;;;;;;;;;-142.75;51.96;77491.66;5056484;28;20404;-77
2021/04/19 09:19:02;;;;;;;;;;;;;;;-142.75;50.04;77515.28;5074356;28;20385;-74
2021/04/19 09:21:44;;;;;;;;;;;;;;;-142.75;50.66;77582.22;5074154;28;19920;-75
2021/04/19 09:24:11;;;;;;;;;;;;;;;-142.75;51.79;77556.63;5074618;28;19931;-75
2021/04/19 09:26:50;;;;;;;;;;;;;;;-142.75;52.25;77554.66;5074425;28;19973;-76
2021/04/19 09:29:42;;;;;;;;;;;;;;;-142.75;52.31;77552.69;5074341;28;19920;-76
2021/04/19 09:32:20;;;;;;;;;;;;;;;-142.75;51.55;77554.66;5056276;28;19912;-76
2021/04/19 09:34:49;;;;;;;;;;;;;;;-142.75;51.30;77568.44;5074145;28;19982;-75
2021/04/19 09:37:18;;;;;;;;;;;;;;;-142.75;52.83;77700.34;5050654;28;19952;-75
2021/04/19 09:39:43;;;;;;;;;;;;;;;-142.75;54.00;77727.94;5056122;28;19935;-75
2021/04/19 09:42:09;;;;;;;;;;;;;;;-142.75;54.77;77737.78;5055798;28;19912;-75
2021/04/19 09:44:47;;;;;;;;;;;;;;;-142.75;54.97;77725.97;5074100;28;20329;-76
2021/04/19 09:47:32;;;;;;;;;;;;;;;-142.75;54.44;77710.19;5035793;28;19998;-75
2021/04/19 09:49:58;;;;;;;;;;;;;;;-142.75;54.50;77706.25;5053397;28;19912;-75
2021/04/19 09:52:23;;;;;;;;;;;;;;;-142.75;54.79;77769.28;5051857;28;20386;-73
2021/04/19 09:54:48;;;;;;;;;;;;;;;-142.75;55.51;77747.63;5052008;28;19913;-75
2021/04/19 09:57:14;;;;;;;;;;;;;;;-142.75;55.14;77690.50;5033054;28;20382;-74
2021/04/19 09:59:39;;;;;;;;;;;;;;;-142.75;54.32;77645.22;5049938;28;19916;-73
2021/04/19 10:02:10;;;;;;;;;;;;;;;-142.75;54.64;77680.66;5052020;28;19920;-74
2021/04/19 10:04:41;;;;;;;;;;;;;;;-142.75;54.29;77727.94;5053287;28;19995;-74
2021/04/19 10:07:07;;;;;;;;;;;;;;;-142.75;54.12;77723.97;5053049;28;20031;-74
2021/04/19 10:09:34;;;;;;;;;;;;;;;-142.75;54.78;77566.47;5052462;28;19999;-74
2021/04/19 10:12:05;;;;;;;;;;;;;;;-142.75;50.83;77308.53;5037440;28;19917;-73
2021/04/19 10:14:37;;;;;;;;;;;;;;;-142.75;48.86;77068.34;5052865;28;20576;-74
2021/04/19 10:17:12;;;;;;;;;;;;;;;-142.75;45.13;76873.44;5052854;28;19966;-73
2021/04/19 10:19:37;;;;;;;;;;;;;;;-142.75;42.36;76782.91;5052956;28;19913;-74
2021/04/19 10:22:03;;;;;;;;;;;;;;;-142.75;42.16;76891.16;5052600;28;19991;-73
2021/04/19 10:24:29;;;;;;;;;;;;;;;-142.75;43.68;76948.25;5034466;28;20443;-75
2021/04/19 10:26:54;;;;;;;;;;;;;;;-142.75;44.28;77101.81;5053257;28;19917;-73
2021/04/19 10:29:21;;;;;;;;;;;;;;;-142.75;44.68;77001.41;5056499;28;20376;-73
2021/04/19 10:31:47;;;;;;;;;;;;;;;-142.75;43.85;76836.03;5072328;28;19912;-73
2021/04/19 10:34:12;;;;;;;;;;;;;;;-142.75;41.68;76678.56;5072799;28;20392;-73
2021/04/19 10:37:13;;;;;;;;;;;;;;;-142.75;40.70;76684.47;5054727;28;19913;-74
2021/04/19 10:39:38;;;;;;;;;;;;;;;-142.75;39.01;76546.66;5010190;28;20005;-73
2021/04/19 10:42:05;;;;;;;;;;;;;;;-142.75;39.93;76511.25;5058843;28;19916;-73
2021/04/19 10:44:38;;;;;;;;;;;;;;;-142.75;37.90;76438.41;5052540;28;20270;-72
2021/04/19 10:47:04;;;;;;;;;;;;;;;-142.75;39.68;76782.91;5052075;28;19995;-73
2021/04/19 10:49:29;;;;;;;;;;;;;;;-142.75;43.62;77068.34;5052056;28;20008;-72
2021/04/19 10:51:57;;;;;;;;;;;;;;;-142.75;44.04;77111.66;5033658;28;20011;-73
2021/04/19 10:54:30;;;;;;;;;;;;;;;-142.75;42.89;77036.84;5052079;28;20290;-72
2021/04/19 10:56:55;;;;;;;;;;;;;;;-142.75;46.44;77204.19;5052196;28;19995;-75
2021/04/19 10:59:23;;;;;;;;;;;;;;;-142.75;46.02;77225.84;5051978;28;20023;-73
2021/04/19 11:01:54;;;;;;;;;;;;;;;-142.75;47.36;77288.84;5051687;28;19912;-71
2021/04/19 11:04:21;;;;;;;;;;;;;;;-142.75;48.78;77460.13;5051946;28;20383;-72
2021/04/19 11:06:46;;;;;;;;;;;;;;;-142.75;48.85;77375.47;5051642;28;19919;-72
2021/04/19 11:09:18;;;;;;;;;;;;;;;-142.75;48.44;77397.13;5052112;28;19916;-73
2021/04/19 11:11:48;;;;;;;;;;;;;;;-142.75;49.39;77452.25;5033459;28;19913;-73
2021/04/19 11:14:27;;;;;;;;;;;;;;;-142.75;50.49;77507.41;5051839;28;19919;-71
2021/04/19 11:16:59;;;;;;;;;;;;;;;-142.75;52.58;77590.09;5032989;28;20290;-72
2021/04/19 11:19:37;;;;;;;;;;;;;;;-142.75;51.76;77609.78;5033438;28;19924;-72
2021/04/19 11:22:20;;;;;;;;;;;;;;;-142.75;52.93;77597.97;5050385;28;19962;-73
2021/04/19 11:24:46;;;;;;;;;;;;;;;-142.75;52.89;77666.88;5033704;28;19928;-73
2021/04/19 11:27:11;;;;;;;;;;;;;;;-142.75;53.44;77676.72;5051796;28;19958;-73
2021/04/19 11:29:40;;;;;;;;;;;;;;;-142.75;53.46;77680.66;5055293;28;20301;-72
2021/04/19 11:32:06;;;;;;;;;;;;;;;-142.75;54.13;77676.72;5042009;28;19924;-73
2021/04/19 11:34:35;;;;;;;;;;;;;;;-142.75;53.39;77651.13;5065112;28;19970;-74
2021/04/19 11:37:01;;;;;;;;;;;;;;;-142.75;53.04;77625.53;5053085;28;19919;-73
2021/04/19 11:39:26;;;;;;;;;;;;;;;-142.75;52.20;77621.59;5068595;28;19913;-73
2021/04/19 11:41:51;;;;;;;;;;;;;;;-142.75;53.47;77619.63;5050694;28;19999;-72
2021/04/19 11:44:17;;;;;;;;;;;;;;;-142.75;53.23;77625.53;5051239;28;19913;-73
2021/04/19 11:46:43;;;;;;;;;;;;;;;-142.75;54.43;77657.03;5051114;28;19939;-72
2021/04/19 11:49:09;;;;;;;;;;;;;;;-142.75;53.10;77627.50;5050847;28;19916;-71
2021/04/19 11:51:34;;;;;;;;;;;;;;;-142.75;52.99;77617.66;5049041;28;19947;-72
2021/04/19 11:53:59;;;;;;;;;;;;;;;-142.75;52.13;77605.84;5070677;28;20354;-73
2021/04/19 11:56:24;;;;;;;;;;;;;;;-142.75;53.31;77584.19;5071124;28;20394;-73
2021/04/19 11:58:50;;;;;;;;;;;;;;;-142.75;51.67;77605.84;5070983;28;19920;-72
2021/04/19 12:01:20;;;;;;;;;;;;;;;-142.75;52.25;77572.38;5070272;28;19920;-73
2021/04/19 12:03:45;;;;;;;;;;;;;;;-142.75;51.79;77617.66;5071011;28;20336;-73
2021/04/19 12:06:11;;;;;;;;;;;;;;;-142.75;51.31;77580.25;5070693;28;19958;-72
2021/04/19 12:08:36;;;;;;;;;;;;;;;-142.75;50.68;77566.47;5070577;28;19970;-72
2021/04/19 12:11:02;;;;;;;;;;;;;;;-142.75;49.16;77538.91;5070201;28;19918;-72
2021/04/19 12:13:28;;;;;;;;;;;;;;;-142.75;48.39;77509.38;5092874;22;19939;-71
2021/04/19 12:15:53;;;;;;;;;;;;;;;-142.75;48.29;77473.94;5068975;28;20344;-72
2021/04/19 12:18:19;;;;;;;;;;;;;;;-142.75;49.49;77511.34;5069792;28;19931;-72
2021/04/19 12:20:45;;;;;;;;;;;;;;;-142.75;49.95;77572.38;5070123;28;19912;-74
2021/04/19 12:23:10;;;;;;;;;;;;;;;-142.75;50.01;77613.72;5071685;28;19911;-74
2021/04/19 12:25:36;;;;;;;;;;;;;;;-142.75;49.93;77594.03;5077475;28;19916;-74
2021/04/19 12:28:01;;;;;;;;;;;;;;;-142.75;51.03;77586.16;5070248;28;19919;-74
2021/04/19 12:30:27;;;;;;;;;;;;;;;-142.75;49.66;77538.91;5069630;28;20292;-72